sensor_id;sensor_type;location;lat;lon;timestamp;P1;durP1;ratioP1;P2;durP2;ratioP2
61905;SDS011;47863;55.766;37.672;2023-07-13T00:00:25;2.67;;;1.30;;
61905;SDS011;47863;55.766;37.672;2023-07-13T00:02:51;2.50;;;1.23;;
61905;SDS011;47863;55.766;37.672;2023-07-13T00:05:20;3.13;;;1.25;;
61905;SDS011;47863;55.766;37.672;2023-07-13T00:07:47;2.47;;;1.35;;
61905;SDS011;47863;55.766;37.672;2023-07-13T00:10:14;2.00;;;1.02;;
61905;SDS011;47863;55.766;37.672;2023-07-13T00:12:40;3.10;;;1.38;;
61905;SDS011;47863;55.766;37.672;2023-07-13T00:15:09;2.97;;;1.33;;
61905;SDS011;47863;55.766;37.672;2023-07-13T00:17:38;2.78;;;1.50;;
61905;SDS011;47863;55.766;37.672;2023-07-13T00:20:04;5.10;;;1.50;;
61905;SDS011;47863;55.766;37.672;2023-07-13T00:22:32;4.47;;;1.70;;
61905;SDS011;47863;55.766;37.672;2023-07-13T00:24:58;2.65;;;1.27;;
61905;SDS011;47863;55.766;37.672;2023-07-13T00:27:24;3.05;;;1.63;;
61905;SDS011;47863;55.766;37.672;2023-07-13T00:29:51;2.80;;;1.60;;
61905;SDS011;47863;55.766;37.672;2023-07-13T00:32:18;2.42;;;1.38;;
61905;SDS011;47863;55.766;37.672;2023-07-13T00:34:43;3.83;;;1.95;;
61905;SDS011;47863;55.766;37.672;2023-07-13T00:37:09;2.63;;;1.35;;
61905;SDS011;47863;55.766;37.672;2023-07-13T00:39:35;3.78;;;1.73;;
61905;SDS011;47863;55.766;37.672;2023-07-13T00:42:01;3.40;;;1.55;;
61905;SDS011;47863;55.766;37.672;2023-07-13T00:44:28;3.05;;;1.58;;
61905;SDS011;47863;55.766;37.672;2023-07-13T00:46:53;3.38;;;1.67;;
61905;SDS011;47863;55.766;37.672;2023-07-13T00:49:21;2.88;;;1.52;;
61905;SDS011;47863;55.766;37.672;2023-07-13T00:51:56;3.97;;;1.27;;
61905;SDS011;47863;55.766;37.672;2023-07-13T00:54:26;2.95;;;1.50;;
61905;SDS011;47863;55.766;37.672;2023-07-13T00:56:57;3.08;;;1.67;;
61905;SDS011;47863;55.766;37.672;2023-07-13T00:59:27;3.67;;;1.55;;
61905;SDS011;47863;55.766;37.672;2023-07-13T01:01:53;3.20;;;1.55;;
61905;SDS011;47863;55.766;37.672;2023-07-13T01:04:19;3.00;;;1.48;;
61905;SDS011;47863;55.766;37.672;2023-07-13T01:06:45;2.78;;;1.60;;
61905;SDS011;47863;55.766;37.672;2023-07-13T01:09:12;3.25;;;1.42;;
61905;SDS011;47863;55.766;37.672;2023-07-13T01:11:40;2.40;;;1.48;;
61905;SDS011;47863;55.766;37.672;2023-07-13T01:14:07;3.33;;;1.38;;
61905;SDS011;47863;55.766;37.672;2023-07-13T01:16:34;3.03;;;1.50;;
61905;SDS011;47863;55.766;37.672;2023-07-13T01:19:01;4.60;;;1.88;;
61905;SDS011;47863;55.766;37.672;2023-07-13T01:21:34;3.70;;;1.70;;
61905;SDS011;47863;55.766;37.672;2023-07-13T01:24:00;3.13;;;1.48;;
61905;SDS011;47863;55.766;37.672;2023-07-13T01:26:27;2.90;;;1.33;;
61905;SDS011;47863;55.766;37.672;2023-07-13T01:28:53;2.83;;;1.48;;
61905;SDS011;47863;55.766;37.672;2023-07-13T01:31:18;2.33;;;1.35;;
61905;SDS011;47863;55.766;37.672;2023-07-13T01:33:44;4.05;;;1.60;;
61905;SDS011;47863;55.766;37.672;2023-07-13T01:36:10;3.50;;;1.77;;
61905;SDS011;47863;55.766;37.672;2023-07-13T01:38:36;5.75;;;1.80;;
61905;SDS011;47863;55.766;37.672;2023-07-13T01:41:03;3.50;;;1.60;;
61905;SDS011;47863;55.766;37.672;2023-07-13T01:43:29;3.10;;;1.50;;
61905;SDS011;47863;55.766;37.672;2023-07-13T01:45:55;2.38;;;1.45;;
61905;SDS011;47863;55.766;37.672;2023-07-13T01:48:20;3.13;;;1.50;;
61905;SDS011;47863;55.766;37.672;2023-07-13T01:50:47;2.80;;;1.42;;
61905;SDS011;47863;55.766;37.672;2023-07-13T01:53:12;3.40;;;2.00;;
61905;SDS011;47863;55.766;37.672;2023-07-13T01:55:38;3.30;;;1.77;;
61905;SDS011;47863;55.766;37.672;2023-07-13T01:58:04;4.10;;;2.00;;
61905;SDS011;47863;55.766;37.672;2023-07-13T02:00:30;3.35;;;1.77;;
61905;SDS011;47863;55.766;37.672;2023-07-13T02:02:56;2.33;;;1.45;;
61905;SDS011;47863;55.766;37.672;2023-07-13T02:05:22;3.83;;;1.67;;
61905;SDS011;47863;55.766;37.672;2023-07-13T02:07:48;3.90;;;2.15;;
61905;SDS011;47863;55.766;37.672;2023-07-13T02:10:14;3.53;;;2.05;;
61905;SDS011;47863;55.766;37.672;2023-07-13T02:12:41;3.67;;;1.60;;
61905;SDS011;47863;55.766;37.672;2023-07-13T02:15:07;3.88;;;1.67;;
61905;SDS011;47863;55.766;37.672;2023-07-13T02:17:34;2.83;;;1.52;;
61905;SDS011;47863;55.766;37.672;2023-07-13T02:20:01;2.80;;;1.70;;
61905;SDS011;47863;55.766;37.672;2023-07-13T02:22:32;2.92;;;1.70;;
61905;SDS011;47863;55.766;37.672;2023-07-13T02:24:58;2.88;;;1.40;;
61905;SDS011;47863;55.766;37.672;2023-07-13T02:27:23;2.45;;;1.45;;
61905;SDS011;47863;55.766;37.672;2023-07-13T02:29:49;2.38;;;1.20;;
61905;SDS011;47863;55.766;37.672;2023-07-13T02:32:17;2.92;;;1.50;;
61905;SDS011;47863;55.766;37.672;2023-07-13T02:34:42;2.25;;;1.40;;
61905;SDS011;47863;55.766;37.672;2023-07-13T02:37:08;3.15;;;1.50;;
61905;SDS011;47863;55.766;37.672;2023-07-13T02:39:34;2.28;;;1.40;;
61905;SDS011;47863;55.766;37.672;2023-07-13T02:41:59;2.60;;;1.48;;
61905;SDS011;47863;55.766;37.672;2023-07-13T02:44:26;3.20;;;1.70;;
61905;SDS011;47863;55.766;37.672;2023-07-13T02:46:52;3.97;;;1.60;;
61905;SDS011;47863;55.766;37.672;2023-07-13T02:49:18;3.40;;;1.58;;
61905;SDS011;47863;55.766;37.672;2023-07-13T02:51:44;3.10;;;1.50;;
61905;SDS011;47863;55.766;37.672;2023-07-13T02:54:09;2.45;;;1.30;;
61905;SDS011;47863;55.766;37.672;2023-07-13T02:56:37;5.35;;;1.65;;
61905;SDS011;47863;55.766;37.672;2023-07-13T02:59:04;3.75;;;1.63;;
61905;SDS011;47863;55.766;37.672;2023-07-13T03:01:29;2.75;;;1.58;;
61905;SDS011;47863;55.766;37.672;2023-07-13T03:03:55;9.30;;;4.47;;
61905;SDS011;47863;55.766;37.672;2023-07-13T03:06:21;3.22;;;1.90;;
61905;SDS011;47863;55.766;37.672;2023-07-13T03:08:49;3.85;;;1.70;;
61905;SDS011;47863;55.766;37.672;2023-07-13T03:11:19;3.15;;;1.65;;
61905;SDS011;47863;55.766;37.672;2023-07-13T03:13:45;3.00;;;1.60;;
61905;SDS011;47863;55.766;37.672;2023-07-13T03:16:12;3.33;;;1.77;;
61905;SDS011;47863;55.766;37.672;2023-07-13T03:18:39;2.47;;;1.40;;
61905;SDS011;47863;55.766;37.672;2023-07-13T03:21:05;3.63;;;1.48;;
61905;SDS011;47863;55.766;37.672;2023-07-13T03:23:30;3.25;;;1.73;;
61905;SDS011;47863;55.766;37.672;2023-07-13T03:26:04;3.72;;;1.90;;
61905;SDS011;47863;55.766;37.672;2023-07-13T03:28:34;3.95;;;1.70;;
61905;SDS011;47863;55.766;37.672;2023-07-13T03:31:02;2.78;;;1.70;;
61905;SDS011;47863;55.766;37.672;2023-07-13T03:33:29;3.20;;;1.52;;
61905;SDS011;47863;55.766;37.672;2023-07-13T03:35:55;3.85;;;1.90;;
61905;SDS011;47863;55.766;37.672;2023-07-13T03:38:21;2.80;;;1.40;;
61905;SDS011;47863;55.766;37.672;2023-07-13T03:40:46;3.33;;;1.90;;
61905;SDS011;47863;55.766;37.672;2023-07-13T03:43:12;3.15;;;1.52;;
61905;SDS011;47863;55.766;37.672;2023-07-13T03:45:38;2.75;;;1.80;;
61905;SDS011;47863;55.766;37.672;2023-07-13T03:48:03;5.13;;;1.55;;
61905;SDS011;47863;55.766;37.672;2023-07-13T03:50:30;3.47;;;1.52;;
61905;SDS011;47863;55.766;37.672;2023-07-13T03:52:57;2.90;;;1.40;;
61905;SDS011;47863;55.766;37.672;2023-07-13T03:55:23;3.13;;;1.63;;
61905;SDS011;47863;55.766;37.672;2023-07-13T03:57:53;2.55;;;1.25;;
61905;SDS011;47863;55.766;37.672;2023-07-13T04:00:23;3.28;;;1.80;;
61905;SDS011;47863;55.766;37.672;2023-07-13T04:02:48;3.10;;;1.70;;
61905;SDS011;47863;55.766;37.672;2023-07-13T04:05:15;5.38;;;1.67;;
61905;SDS011;47863;55.766;37.672;2023-07-13T04:07:40;6.32;;;2.03;;
61905;SDS011;47863;55.766;37.672;2023-07-13T04:10:06;3.63;;;2.42;;
61905;SDS011;47863;55.766;37.672;2023-07-13T04:12:32;3.65;;;2.00;;
61905;SDS011;47863;55.766;37.672;2023-07-13T04:14:57;5.97;;;1.85;;
61905;SDS011;47863;55.766;37.672;2023-07-13T04:17:23;3.47;;;1.80;;
61905;SDS011;47863;55.766;37.672;2023-07-13T04:19:49;4.60;;;1.65;;
61905;SDS011;47863;55.766;37.672;2023-07-13T04:22:14;4.07;;;1.90;;
61905;SDS011;47863;55.766;37.672;2023-07-13T04:24:40;5.10;;;1.80;;
61905;SDS011;47863;55.766;37.672;2023-07-13T04:27:06;2.90;;;1.40;;
61905;SDS011;47863;55.766;37.672;2023-07-13T04:29:32;3.88;;;1.98;;
61905;SDS011;47863;55.766;37.672;2023-07-13T04:31:58;3.50;;;1.65;;
61905;SDS011;47863;55.766;37.672;2023-07-13T04:34:24;3.72;;;1.80;;
61905;SDS011;47863;55.766;37.672;2023-07-13T04:36:49;2.90;;;1.90;;
61905;SDS011;47863;55.766;37.672;2023-07-13T04:39:15;2.83;;;1.60;;
61905;SDS011;47863;55.766;37.672;2023-07-13T04:41:41;4.00;;;1.58;;
61905;SDS011;47863;55.766;37.672;2023-07-13T04:44:07;5.35;;;2.50;;
61905;SDS011;47863;55.766;37.672;2023-07-13T04:46:33;5.18;;;2.30;;
61905;SDS011;47863;55.766;37.672;2023-07-13T04:48:58;3.47;;;1.73;;
61905;SDS011;47863;55.766;37.672;2023-07-13T04:51:24;3.78;;;2.15;;
61905;SDS011;47863;55.766;37.672;2023-07-13T04:53:50;3.50;;;1.83;;
61905;SDS011;47863;55.766;37.672;2023-07-13T04:56:15;4.15;;;2.00;;
61905;SDS011;47863;55.766;37.672;2023-07-13T04:58:41;4.25;;;1.42;;
61905;SDS011;47863;55.766;37.672;2023-07-13T05:01:07;2.90;;;1.70;;
61905;SDS011;47863;55.766;37.672;2023-07-13T05:03:34;3.92;;;1.75;;
61905;SDS011;47863;55.766;37.672;2023-07-13T05:06:01;3.30;;;1.70;;
61905;SDS011;47863;55.766;37.672;2023-07-13T05:08:28;4.20;;;1.88;;
61905;SDS011;47863;55.766;37.672;2023-07-13T05:10:54;5.07;;;1.65;;
61905;SDS011;47863;55.766;37.672;2023-07-13T05:13:20;2.63;;;1.52;;
61905;SDS011;47863;55.766;37.672;2023-07-13T05:15:47;3.67;;;1.88;;
61905;SDS011;47863;55.766;37.672;2023-07-13T05:18:20;3.80;;;1.88;;
61905;SDS011;47863;55.766;37.672;2023-07-13T05:20:46;7.60;;;3.63;;
61905;SDS011;47863;55.766;37.672;2023-07-13T05:23:11;3.85;;;1.90;;
61905;SDS011;47863;55.766;37.672;2023-07-13T05:25:37;4.70;;;2.05;;
61905;SDS011;47863;55.766;37.672;2023-07-13T05:28:02;4.22;;;1.85;;
61905;SDS011;47863;55.766;37.672;2023-07-13T05:30:28;3.65;;;2.00;;
61905;SDS011;47863;55.766;37.672;2023-07-13T05:32:53;2.83;;;1.55;;
61905;SDS011;47863;55.766;37.672;2023-07-13T05:35:19;7.25;;;2.10;;
61905;SDS011;47863;55.766;37.672;2023-07-13T05:37:44;4.80;;;2.08;;
61905;SDS011;47863;55.766;37.672;2023-07-13T05:40:10;3.67;;;1.70;;
61905;SDS011;47863;55.766;37.672;2023-07-13T05:42:36;3.28;;;1.80;;
61905;SDS011;47863;55.766;37.672;2023-07-13T05:45:01;3.10;;;2.00;;
61905;SDS011;47863;55.766;37.672;2023-07-13T05:47:29;4.22;;;1.98;;
61905;SDS011;47863;55.766;37.672;2023-07-13T05:49:55;3.65;;;1.80;;
61905;SDS011;47863;55.766;37.672;2023-07-13T05:52:20;3.30;;;1.70;;
61905;SDS011;47863;55.766;37.672;2023-07-13T05:54:46;4.28;;;1.42;;
61905;SDS011;47863;55.766;37.672;2023-07-13T05:57:11;2.75;;;1.70;;
61905;SDS011;47863;55.766;37.672;2023-07-13T05:59:37;2.92;;;1.75;;
61905;SDS011;47863;55.766;37.672;2023-07-13T06:02:03;4.03;;;1.73;;
61905;SDS011;47863;55.766;37.672;2023-07-13T06:04:28;3.83;;;1.70;;
61905;SDS011;47863;55.766;37.672;2023-07-13T06:06:54;3.78;;;1.90;;
61905;SDS011;47863;55.766;37.672;2023-07-13T06:09:20;3.33;;;1.90;;
61905;SDS011;47863;55.766;37.672;2023-07-13T06:11:45;4.25;;;1.60;;
61905;SDS011;47863;55.766;37.672;2023-07-13T06:14:11;4.75;;;2.10;;
61905;SDS011;47863;55.766;37.672;2023-07-13T06:16:36;4.57;;;2.17;;
61905;SDS011;47863;55.766;37.672;2023-07-13T06:19:02;5.07;;;1.83;;
61905;SDS011;47863;55.766;37.672;2023-07-13T06:21:27;3.00;;;2.00;;
61905;SDS011;47863;55.766;37.672;2023-07-13T06:23:53;3.55;;;1.70;;
61905;SDS011;47863;55.766;37.672;2023-07-13T06:26:19;6.47;;;1.65;;
61905;SDS011;47863;55.766;37.672;2023-07-13T06:28:46;2.63;;;1.20;;
61905;SDS011;47863;55.766;37.672;2023-07-13T06:31:12;2.25;;;1.30;;
61905;SDS011;47863;55.766;37.672;2023-07-13T06:33:38;3.38;;;1.65;;
61905;SDS011;47863;55.766;37.672;2023-07-13T06:36:04;4.45;;;1.70;;
61905;SDS011;47863;55.766;37.672;2023-07-13T06:38:32;2.65;;;1.40;;
61905;SDS011;47863;55.766;37.672;2023-07-13T06:40:58;3.30;;;1.70;;
61905;SDS011;47863;55.766;37.672;2023-07-13T06:43:24;3.00;;;1.60;;
61905;SDS011;47863;55.766;37.672;2023-07-13T06:45:50;3.60;;;1.90;;
61905;SDS011;47863;55.766;37.672;2023-07-13T06:48:17;3.78;;;2.10;;
61905;SDS011;47863;55.766;37.672;2023-07-13T06:50:44;3.00;;;1.60;;
61905;SDS011;47863;55.766;37.672;2023-07-13T06:53:11;3.25;;;1.90;;
61905;SDS011;47863;55.766;37.672;2023-07-13T06:55:38;2.50;;;1.63;;
61905;SDS011;47863;55.766;37.672;2023-07-13T06:58:04;3.47;;;1.80;;
61905;SDS011;47863;55.766;37.672;2023-07-13T07:00:31;2.92;;;1.50;;
61905;SDS011;47863;55.766;37.672;2023-07-13T07:02:56;4.80;;;1.77;;
61905;SDS011;47863;55.766;37.672;2023-07-13T07:05:22;4.88;;;1.77;;
61905;SDS011;47863;55.766;37.672;2023-07-13T07:07:49;3.55;;;1.98;;
61905;SDS011;47863;55.766;37.672;2023-07-13T07:10:16;2.83;;;1.70;;
61905;SDS011;47863;55.766;37.672;2023-07-13T07:12:42;3.15;;;1.75;;
61905;SDS011;47863;55.766;37.672;2023-07-13T07:15:07;3.45;;;1.73;;
61905;SDS011;47863;55.766;37.672;2023-07-13T07:17:33;4.25;;;2.42;;
61905;SDS011;47863;55.766;37.672;2023-07-13T07:19:59;6.85;;;2.30;;
61905;SDS011;47863;55.766;37.672;2023-07-13T07:22:24;4.30;;;1.80;;
61905;SDS011;47863;55.766;37.672;2023-07-13T07:24:53;3.75;;;1.85;;
61905;SDS011;47863;55.766;37.672;2023-07-13T07:27:19;3.38;;;1.98;;
61905;SDS011;47863;55.766;37.672;2023-07-13T07:29:45;4.65;;;2.00;;
61905;SDS011;47863;55.766;37.672;2023-07-13T07:32:11;4.53;;;1.85;;
61905;SDS011;47863;55.766;37.672;2023-07-13T07:34:37;3.80;;;2.17;;
61905;SDS011;47863;55.766;37.672;2023-07-13T07:37:02;4.28;;;1.90;;
61905;SDS011;47863;55.766;37.672;2023-07-13T07:39:28;5.25;;;1.67;;
61905;SDS011;47863;55.766;37.672;2023-07-13T07:41:54;4.75;;;2.20;;
61905;SDS011;47863;55.766;37.672;2023-07-13T07:44:20;7.18;;;2.10;;
61905;SDS011;47863;55.766;37.672;2023-07-13T07:46:46;4.43;;;2.00;;
61905;SDS011;47863;55.766;37.672;2023-07-13T07:49:11;2.70;;;1.63;;
61905;SDS011;47863;55.766;37.672;2023-07-13T07:51:37;5.55;;;2.10;;
61905;SDS011;47863;55.766;37.672;2023-07-13T07:54:03;5.15;;;2.40;;
61905;SDS011;47863;55.766;37.672;2023-07-13T07:56:30;4.40;;;2.28;;
61905;SDS011;47863;55.766;37.672;2023-07-13T07:58:56;4.75;;;1.98;;
61905;SDS011;47863;55.766;37.672;2023-07-13T08:01:21;3.13;;;1.75;;
61905;SDS011;47863;55.766;37.672;2023-07-13T08:03:47;4.18;;;2.05;;
61905;SDS011;47863;55.766;37.672;2023-07-13T08:06:13;5.68;;;2.00;;
61905;SDS011;47863;55.766;37.672;2023-07-13T08:08:39;4.55;;;2.25;;
61905;SDS011;47863;55.766;37.672;2023-07-13T08:11:05;3.58;;;2.08;;
61905;SDS011;47863;55.766;37.672;2023-07-13T08:13:33;3.92;;;2.13;;
61905;SDS011;47863;55.766;37.672;2023-07-13T08:15:59;4.10;;;2.13;;
61905;SDS011;47863;55.766;37.672;2023-07-13T08:18:25;3.13;;;1.80;;
61905;SDS011;47863;55.766;37.672;2023-07-13T08:20:53;5.70;;;2.53;;
61905;SDS011;47863;55.766;37.672;2023-07-13T08:23:21;4.85;;;2.90;;
61905;SDS011;47863;55.766;37.672;2023-07-13T08:25:53;5.55;;;2.58;;
61905;SDS011;47863;55.766;37.672;2023-07-13T08:28:20;5.25;;;2.40;;
61905;SDS011;47863;55.766;37.672;2023-07-13T08:30:47;4.13;;;2.42;;
61905;SDS011;47863;55.766;37.672;2023-07-13T08:33:17;4.85;;;2.42;;
61905;SDS011;47863;55.766;37.672;2023-07-13T08:35:47;8.00;;;3.47;;
61905;SDS011;47863;55.766;37.672;2023-07-13T08:38:14;6.38;;;3.08;;
61905;SDS011;47863;55.766;37.672;2023-07-13T08:40:41;7.82;;;3.70;;
61905;SDS011;47863;55.766;37.672;2023-07-13T08:43:08;6.28;;;4.25;;
61905;SDS011;47863;55.766;37.672;2023-07-13T08:50:54;7.03;;;3.78;;
61905;SDS011;47863;55.766;37.672;2023-07-13T08:53:29;5.88;;;3.20;;
61905;SDS011;47863;55.766;37.672;2023-07-13T08:56:01;8.35;;;3.63;;
61905;SDS011;47863;55.766;37.672;2023-07-13T08:58:28;8.63;;;3.75;;
61905;SDS011;47863;55.766;37.672;2023-07-13T09:03:50;5.40;;;3.05;;
61905;SDS011;47863;55.766;37.672;2023-07-13T09:06:39;6.07;;;2.38;;
61905;SDS011;47863;55.766;37.672;2023-07-13T09:09:10;6.10;;;3.00;;
61905;SDS011;47863;55.766;37.672;2023-07-13T09:12:00;4.43;;;2.53;;
61905;SDS011;47863;55.766;37.672;2023-07-13T09:17:00;6.35;;;2.55;;
61905;SDS011;47863;55.766;37.672;2023-07-13T09:19:30;7.60;;;2.50;;
61905;SDS011;47863;55.766;37.672;2023-07-13T09:21:58;6.38;;;2.70;;
61905;SDS011;47863;55.766;37.672;2023-07-13T09:24:33;5.32;;;2.55;;
61905;SDS011;47863;55.766;37.672;2023-07-13T09:27:22;4.50;;;2.33;;
61905;SDS011;47863;55.766;37.672;2023-07-13T09:32:38;4.82;;;2.33;;
61905;SDS011;47863;55.766;37.672;2023-07-13T09:35:12;4.80;;;2.35;;
61905;SDS011;47863;55.766;37.672;2023-07-13T09:37:43;5.88;;;3.00;;
61905;SDS011;47863;55.766;37.672;2023-07-13T09:40:17;5.05;;;2.30;;
61905;SDS011;47863;55.766;37.672;2023-07-13T09:42:52;4.45;;;2.25;;
61905;SDS011;47863;55.766;37.672;2023-07-13T09:45:27;5.13;;;2.33;;
61905;SDS011;47863;55.766;37.672;2023-07-13T09:48:13;5.18;;;2.50;;
61905;SDS011;47863;55.766;37.672;2023-07-13T09:50:41;5.57;;;2.28;;
61905;SDS011;47863;55.766;37.672;2023-07-13T09:53:12;4.22;;;2.35;;
61905;SDS011;47863;55.766;37.672;2023-07-13T09:55:40;4.35;;;2.47;;
61905;SDS011;47863;55.766;37.672;2023-07-13T09:58:12;5.75;;;2.20;;
61905;SDS011;47863;55.766;37.672;2023-07-13T10:00:43;4.95;;;2.30;;
61905;SDS011;47863;55.766;37.672;2023-07-13T10:03:21;7.35;;;2.70;;
61905;SDS011;47863;55.766;37.672;2023-07-13T10:05:53;4.10;;;2.20;;
61905;SDS011;47863;55.766;37.672;2023-07-13T10:08:26;6.18;;;2.30;;
61905;SDS011;47863;55.766;37.672;2023-07-13T10:11:08;4.57;;;2.42;;
61905;SDS011;47863;55.766;37.672;2023-07-13T10:13:40;3.70;;;2.05;;
61905;SDS011;47863;55.766;37.672;2023-07-13T10:16:08;5.10;;;2.67;;
61905;SDS011;47863;55.766;37.672;2023-07-13T10:18:38;4.40;;;2.30;;
61905;SDS011;47863;55.766;37.672;2023-07-13T10:21:11;4.07;;;2.38;;
61905;SDS011;47863;55.766;37.672;2023-07-13T10:23:39;4.05;;;2.13;;
61905;SDS011;47863;55.766;37.672;2023-07-13T10:26:12;6.18;;;2.40;;
61905;SDS011;47863;55.766;37.672;2023-07-13T10:28:45;5.22;;;2.70;;
61905;SDS011;47863;55.766;37.672;2023-07-13T10:31:16;6.05;;;3.22;;
61905;SDS011;47863;55.766;37.672;2023-07-13T10:33:43;4.05;;;2.45;;
61905;SDS011;47863;55.766;37.672;2023-07-13T10:38:43;5.40;;;2.83;;
61905;SDS011;47863;55.766;37.672;2023-07-13T10:41:12;7.07;;;2.50;;
61905;SDS011;47863;55.766;37.672;2023-07-13T10:43:43;8.02;;;2.88;;
61905;SDS011;47863;55.766;37.672;2023-07-13T10:46:12;7.45;;;2.83;;
61905;SDS011;47863;55.766;37.672;2023-07-13T10:48:41;3.05;;;1.80;;
61905;SDS011;47863;55.766;37.672;2023-07-13T10:51:10;4.15;;;2.40;;
61905;SDS011;47863;55.766;37.672;2023-07-13T10:53:39;4.40;;;2.25;;
61905;SDS011;47863;55.766;37.672;2023-07-13T10:56:06;5.93;;;2.58;;
61905;SDS011;47863;55.766;37.672;2023-07-13T10:59:09;4.72;;;2.67;;
61905;SDS011;47863;55.766;37.672;2023-07-13T11:01:55;4.55;;;2.58;;
61905;SDS011;47863;55.766;37.672;2023-07-13T11:04:24;3.78;;;2.03;;
61905;SDS011;47863;55.766;37.672;2023-07-13T11:06:59;4.10;;;2.28;;
61905;SDS011;47863;55.766;37.672;2023-07-13T11:09:40;4.60;;;2.00;;
61905;SDS011;47863;55.766;37.672;2023-07-13T11:12:10;3.10;;;1.90;;
61905;SDS011;47863;55.766;37.672;2023-07-13T11:20:40;3.78;;;1.88;;
61905;SDS011;47863;55.766;37.672;2023-07-13T11:22:48;5.55;;;2.50;;
61905;SDS011;47863;55.766;37.672;2023-07-13T11:27:45;3.83;;;2.05;;
61905;SDS011;47863;55.766;37.672;2023-07-13T11:32:41;3.33;;;1.90;;
61905;SDS011;47863;55.766;37.672;2023-07-13T11:35:12;5.55;;;2.22;;
61905;SDS011;47863;55.766;37.672;2023-07-13T11:37:44;6.68;;;2.35;;
61905;SDS011;47863;55.766;37.672;2023-07-13T11:40:13;4.50;;;1.95;;
61905;SDS011;47863;55.766;37.672;2023-07-13T11:42:39;4.40;;;2.10;;
61905;SDS011;47863;55.766;37.672;2023-07-13T11:45:12;5.03;;;2.40;;
61905;SDS011;47863;55.766;37.672;2023-07-13T11:47:45;4.35;;;2.70;;
61905;SDS011;47863;55.766;37.672;2023-07-13T11:50:21;4.45;;;2.50;;
61905;SDS011;47863;55.766;37.672;2023-07-13T11:52:49;6.28;;;2.78;;
61905;SDS011;47863;55.766;37.672;2023-07-13T11:55:17;9.75;;;4.15;;
61905;SDS011;47863;55.766;37.672;2023-07-13T11:57:47;5.47;;;2.90;;
61905;SDS011;47863;55.766;37.672;2023-07-13T12:00:21;5.72;;;2.72;;
61905;SDS011;47863;55.766;37.672;2023-07-13T12:02:52;7.18;;;2.70;;
61905;SDS011;47863;55.766;37.672;2023-07-13T12:05:21;3.38;;;1.80;;
61905;SDS011;47863;55.766;37.672;2023-07-13T12:07:47;4.72;;;2.38;;
61905;SDS011;47863;55.766;37.672;2023-07-13T12:12:52;7.03;;;2.33;;
61905;SDS011;47863;55.766;37.672;2023-07-13T12:15:21;5.50;;;2.63;;
61905;SDS011;47863;55.766;37.672;2023-07-13T12:17:49;4.72;;;2.72;;
61905;SDS011;47863;55.766;37.672;2023-07-13T12:20:23;4.15;;;2.08;;
61905;SDS011;47863;55.766;37.672;2023-07-13T12:22:51;5.40;;;2.85;;
61905;SDS011;47863;55.766;37.672;2023-07-13T12:25:17;5.20;;;2.75;;
61905;SDS011;47863;55.766;37.672;2023-07-13T12:27:46;4.22;;;2.35;;
61905;SDS011;47863;55.766;37.672;2023-07-13T12:30:30;7.40;;;2.67;;
61905;SDS011;47863;55.766;37.672;2023-07-13T12:35:40;3.15;;;2.05;;
61905;SDS011;47863;55.766;37.672;2023-07-13T12:38:11;5.47;;;2.22;;
61905;SDS011;47863;55.766;37.672;2023-07-13T12:40:37;3.38;;;1.95;;
61905;SDS011;47863;55.766;37.672;2023-07-13T12:43:09;3.67;;;2.08;;
61905;SDS011;47863;55.766;37.672;2023-07-13T12:45:38;4.95;;;2.17;;
61905;SDS011;47863;55.766;37.672;2023-07-13T12:48:15;4.45;;;2.40;;
61905;SDS011;47863;55.766;37.672;2023-07-13T12:50:43;4.53;;;2.30;;
61905;SDS011;47863;55.766;37.672;2023-07-13T12:53:23;4.05;;;2.35;;
61905;SDS011;47863;55.766;37.672;2023-07-13T12:55:54;6.05;;;2.50;;
61905;SDS011;47863;55.766;37.672;2023-07-13T12:58:29;4.00;;;1.88;;
61905;SDS011;47863;55.766;37.672;2023-07-13T13:00:58;5.10;;;2.22;;
61905;SDS011;47863;55.766;37.672;2023-07-13T13:03:33;5.40;;;2.40;;
61905;SDS011;47863;55.766;37.672;2023-07-13T13:06:03;6.25;;;2.80;;
61905;SDS011;47863;55.766;37.672;2023-07-13T13:08:32;7.72;;;2.10;;
61905;SDS011;47863;55.766;37.672;2023-07-13T13:10:59;9.75;;;4.57;;
61905;SDS011;47863;55.766;37.672;2023-07-13T13:13:25;5.05;;;2.40;;
61905;SDS011;47863;55.766;37.672;2023-07-13T13:15:53;4.30;;;2.58;;
61905;SDS011;47863;55.766;37.672;2023-07-13T13:18:20;4.53;;;2.10;;
61905;SDS011;47863;55.766;37.672;2023-07-13T13:20:48;5.30;;;2.30;;
61905;SDS011;47863;55.766;37.672;2023-07-13T13:23:16;4.13;;;2.20;;
61905;SDS011;47863;55.766;37.672;2023-07-13T13:25:44;4.53;;;2.42;;
61905;SDS011;47863;55.766;37.672;2023-07-13T13:28:13;3.83;;;1.60;;
61905;SDS011;47863;55.766;37.672;2023-07-13T13:30:42;3.40;;;1.85;;
61905;SDS011;47863;55.766;37.672;2023-07-13T13:33:12;3.78;;;1.73;;
61905;SDS011;47863;55.766;37.672;2023-07-13T13:35:40;4.75;;;2.15;;
61905;SDS011;47863;55.766;37.672;2023-07-13T13:38:12;3.63;;;1.92;;
61905;SDS011;47863;55.766;37.672;2023-07-13T13:40:40;4.65;;;2.30;;
61905;SDS011;47863;55.766;37.672;2023-07-13T13:43:21;4.68;;;2.50;;
61905;SDS011;47863;55.766;37.672;2023-07-13T13:45:52;4.80;;;2.28;;
61905;SDS011;47863;55.766;37.672;2023-07-13T13:48:31;5.07;;;3.15;;
61905;SDS011;47863;55.766;37.672;2023-07-13T13:50:58;3.88;;;2.20;;
61905;SDS011;47863;55.766;37.672;2023-07-13T13:53:25;5.78;;;2.45;;
61905;SDS011;47863;55.766;37.672;2023-07-13T13:55:51;7.20;;;3.50;;
61905;SDS011;47863;55.766;37.672;2023-07-13T13:58:18;8.82;;;2.95;;
61905;SDS011;47863;55.766;37.672;2023-07-13T14:00:44;5.38;;;2.67;;
61905;SDS011;47863;55.766;37.672;2023-07-13T14:03:17;5.13;;;2.30;;
61905;SDS011;47863;55.766;37.672;2023-07-13T14:05:45;4.82;;;2.63;;
61905;SDS011;47863;55.766;37.672;2023-07-13T14:08:15;6.53;;;2.22;;
61905;SDS011;47863;55.766;37.672;2023-07-13T14:10:43;4.05;;;2.30;;
61905;SDS011;47863;55.766;37.672;2023-07-13T14:13:55;5.07;;;2.30;;
61905;SDS011;47863;55.766;37.672;2023-07-13T14:15:59;3.75;;;1.92;;
61905;SDS011;47863;55.766;37.672;2023-07-13T14:18:25;4.82;;;2.30;;
61905;SDS011;47863;55.766;37.672;2023-07-13T14:20:50;3.55;;;1.80;;
61905;SDS011;47863;55.766;37.672;2023-07-13T14:23:17;6.72;;;2.45;;
61905;SDS011;47863;55.766;37.672;2023-07-13T14:25:44;5.05;;;2.80;;
61905;SDS011;47863;55.766;37.672;2023-07-13T14:30:49;6.80;;;2.53;;
61905;SDS011;47863;55.766;37.672;2023-07-13T14:33:16;6.63;;;2.90;;
61905;SDS011;47863;55.766;37.672;2023-07-13T14:35:41;6.75;;;2.78;;
61905;SDS011;47863;55.766;37.672;2023-07-13T14:38:11;5.43;;;2.38;;
61905;SDS011;47863;55.766;37.672;2023-07-13T14:40:40;5.93;;;2.65;;
61905;SDS011;47863;55.766;37.672;2023-07-13T14:43:10;7.25;;;2.60;;
61905;SDS011;47863;55.766;37.672;2023-07-13T14:45:38;5.72;;;2.20;;
61905;SDS011;47863;55.766;37.672;2023-07-13T14:48:24;5.13;;;2.47;;
61905;SDS011;47863;55.766;37.672;2023-07-13T14:50:53;6.75;;;2.75;;
61905;SDS011;47863;55.766;37.672;2023-07-13T14:53:21;5.22;;;2.40;;
61905;SDS011;47863;55.766;37.672;2023-07-13T14:55:48;4.95;;;2.10;;
61905;SDS011;47863;55.766;37.672;2023-07-13T14:58:13;7.30;;;3.03;;
61905;SDS011;47863;55.766;37.672;2023-07-13T15:00:39;13.10;;;5.60;;
61905;SDS011;47863;55.766;37.672;2023-07-13T15:03:05;6.03;;;2.83;;
61905;SDS011;47863;55.766;37.672;2023-07-13T15:05:44;5.32;;;2.72;;
61905;SDS011;47863;55.766;37.672;2023-07-13T15:08:10;5.20;;;2.20;;
61905;SDS011;47863;55.766;37.672;2023-07-13T15:10:37;3.92;;;1.92;;
61905;SDS011;47863;55.766;37.672;2023-07-13T15:13:13;7.25;;;2.03;;